createdAt,value
2023-11-07T00:05:25.736Z,-1.89
2023-11-07T00:08:31.224Z,-2.31
2023-11-07T00:11:35.556Z,-2.51
2023-11-07T00:14:39.982Z,-2.20
2023-11-07T00:17:48.332Z,-2.24
2023-11-07T00:20:52.462Z,-2.09
2023-11-07T00:24:06.947Z,-1.57
2023-11-07T00:27:16.319Z,-1.53
2023-11-07T00:30:24.714Z,-1.50
2023-11-07T00:33:38.227Z,-1.68
2023-11-07T00:37:22.018Z,-2.77
2023-11-07T00:45:45.129Z,-2.94
2023-11-07T00:49:30.870Z,-2.79
2023-11-07T01:09:59.575Z,-2.47
2023-11-07T01:18:05.713Z,-2.27
2023-11-07T01:27:03.463Z,-0.78
2023-11-07T01:30:58.972Z,-2.10
2023-11-07T01:39:26.947Z,-2.58
2023-11-07T01:46:57.731Z,-1.54
2023-11-07T01:51:29.246Z,-1.87
2023-11-07T02:03:56.272Z,-0.68
2023-11-07T02:07:09.330Z,-0.65
2023-11-07T02:10:13.818Z,-1.00
2023-11-07T02:13:18.997Z,-0.41
2023-11-07T02:16:23.847Z,-0.39
2023-11-07T02:19:28.496Z,-0.45
2023-11-07T02:23:04.728Z,-0.25
2023-11-07T02:26:09.324Z,-0.42
2023-11-07T02:29:13.900Z,0.01
2023-11-07T02:32:19.048Z,-0.06
2023-11-07T02:35:23.587Z,0.17
2023-11-07T02:38:27.945Z,0.33
2023-11-07T02:41:32.642Z,0.18
2023-11-07T02:44:45.185Z,0.29
2023-11-07T02:47:52.236Z,0.28
2023-11-07T02:50:57.132Z,0.37
2023-11-07T02:54:01.189Z,0.12
2023-11-07T02:57:06.901Z,0.06
2023-11-07T03:00:12.389Z,0.26
2023-11-07T03:03:16.765Z,-0.04
2023-11-07T03:14:30.990Z,-0.55
2023-11-07T03:18:27.737Z,-2.19
2023-11-07T03:22:29.093Z,-2.21
2023-11-07T03:26:08.051Z,-0.96
2023-11-07T03:34:30.973Z,-1.81
2023-11-07T03:37:59.549Z,-1.39
2023-11-07T03:44:58.138Z,-1.67
2023-11-07T03:57:43.178Z,-1.61
2023-11-07T04:27:51.270Z,-3.08
2023-11-07T04:45:52.276Z,-2.77
2023-11-07T04:50:29.048Z,-2.47
2023-11-07T04:59:14.563Z,-2.48
2023-11-07T05:49:24.490Z,-2.26
2023-11-07T05:52:49.475Z,-2.53
2023-11-07T05:55:59.017Z,-1.60
2023-11-07T05:59:47.094Z,-2.02
2023-11-07T06:07:41.434Z,-2.21
2023-11-07T06:11:27.938Z,-1.35
2023-11-07T06:20:35.018Z,-2.45
2023-11-07T06:24:56.602Z,-2.60
2023-11-07T06:37:49.871Z,-2.68
2023-11-07T06:54:33.696Z,-2.80
2023-11-07T06:58:38.537Z,-2.82
2023-11-07T07:16:51.349Z,-3.52
2023-11-07T07:29:27.031Z,-3.10
2023-11-07T07:33:40.721Z,-3.18
2023-11-07T07:38:27.165Z,-4.07
2023-11-07T07:42:51.838Z,-3.47
2023-11-07T08:03:46.812Z,-2.83
2023-11-07T08:07:53.775Z,-4.35
2023-11-07T08:15:39.771Z,-3.39
2023-11-07T08:19:05.475Z,-3.48
2023-11-07T08:22:46.532Z,-3.81
2023-11-07T08:25:58.155Z,-2.98
2023-11-07T08:30:04.555Z,-2.32
2023-11-07T08:34:00.812Z,-3.51
2023-11-07T08:38:14.322Z,-2.86
2023-11-07T08:41:31.466Z,-3.95
2023-11-07T08:44:55.408Z,-2.88
2023-11-07T08:48:38.060Z,-3.23
2023-11-07T08:51:45.277Z,-2.76
2023-11-07T08:54:55.696Z,-3.23
2023-11-07T09:02:46.192Z,-2.14
2023-11-07T09:06:03.081Z,-3.36
2023-11-07T09:09:11.079Z,-3.30
2023-11-07T09:16:17.917Z,-2.65
2023-11-07T09:19:29.883Z,-3.33
2023-11-07T09:22:36.793Z,-2.76
2023-11-07T09:25:51.527Z,-2.70
2023-11-07T09:29:03.935Z,-3.46
2023-11-07T09:32:31.955Z,-3.41
2023-11-07T09:40:04.007Z,-3.47
2023-11-07T09:43:41.456Z,-2.58
2023-11-07T09:47:26.772Z,-2.70
2023-11-07T09:50:50.795Z,-4.18
2023-11-07T09:54:30.306Z,-4.76
2023-11-07T09:58:01.595Z,-4.62
2023-11-07T10:01:41.328Z,-4.25
2023-11-07T10:05:36.861Z,-3.68
2023-11-07T10:12:42.936Z,-4.16
2023-11-07T10:19:38.080Z,-4.89
2023-11-07T10:23:25.100Z,-4.25
2023-11-07T10:26:45.240Z,-4.96
2023-11-07T10:29:59.583Z,-4.63
2023-11-07T10:33:36.662Z,-4.08
2023-11-07T10:36:42.812Z,-4.17
2023-11-07T10:39:57.945Z,-4.58
2023-11-07T10:43:03.338Z,-4.58
2023-11-07T10:46:10.256Z,-4.34
2023-11-07T10:49:16.271Z,-4.56
2023-11-07T10:52:23.654Z,-4.80
2023-11-07T10:55:28.200Z,-4.87
2023-11-07T10:58:35.420Z,-4.95
2023-11-07T11:01:42.207Z,-5.01
2023-11-07T11:04:51.236Z,-5.11
2023-11-07T11:07:59.681Z,-4.90
2023-11-07T11:11:06.552Z,-4.95
2023-11-07T11:14:11.773Z,-5.11
2023-11-07T11:17:45.436Z,-5.14
2023-11-07T11:21:18.911Z,-5.34
2023-11-07T11:24:55.637Z,-5.30
2023-11-07T11:28:07.332Z,-5.65
2023-11-07T11:31:20.733Z,-5.45
2023-11-07T11:34:27.532Z,-5.43
2023-11-07T11:38:26.830Z,-5.42
2023-11-07T11:42:10.917Z,-5.06
2023-11-07T11:48:53.755Z,-5.09
2023-11-07T11:52:09.387Z,-5.54
2023-11-07T11:55:15.253Z,-5.49
2023-11-07T11:58:24.153Z,-5.69
2023-11-07T12:01:51.956Z,-5.59
2023-11-07T12:05:19.698Z,-5.19
2023-11-07T12:08:41.123Z,-5.12
2023-11-07T12:11:47.850Z,-5.39
2023-11-07T12:15:00.380Z,-5.38
2023-11-07T12:18:05.412Z,-5.14
2023-11-07T12:21:10.706Z,-4.81
2023-11-07T12:24:22.254Z,-4.88
2023-11-07T12:27:26.633Z,-4.65
2023-11-07T12:30:34.870Z,-5.08
2023-11-07T12:33:43.469Z,-4.89
2023-11-07T12:36:52.387Z,-6.03
2023-11-07T12:40:30.496Z,-6.14
2023-11-07T12:43:52.942Z,-5.68
2023-11-07T12:47:22.522Z,-6.13
2023-11-07T12:51:02.579Z,-5.17
2023-11-07T12:54:29.981Z,-5.13
2023-11-07T12:57:56.629Z,-5.11
2023-11-07T13:01:14.517Z,-5.63
2023-11-07T13:04:32.347Z,-5.04
2023-11-07T13:08:12.398Z,-5.39
2023-11-07T13:11:20.197Z,-5.09
2023-11-07T13:14:36.053Z,-6.15
2023-11-07T13:18:00.972Z,-5.97
2023-11-07T13:21:13.716Z,-5.15
2023-11-07T13:24:23.375Z,-4.92
2023-11-07T13:27:32.395Z,-5.12
2023-11-07T13:30:40.570Z,-5.10
2023-11-07T13:33:47.871Z,-5.00
2023-11-07T13:36:56.524Z,-4.85
2023-11-07T13:40:22.188Z,-5.29
2023-11-07T13:43:28.179Z,-4.88
2023-11-07T13:46:41.107Z,-4.83
2023-11-07T13:49:48.271Z,-4.82
2023-11-07T13:53:04.167Z,-4.95
2023-11-07T13:56:16.634Z,-5.61
2023-11-07T14:00:01.637Z,-5.97
2023-11-07T14:03:30.062Z,-5.31
2023-11-07T14:06:41.667Z,-5.43
2023-11-07T14:09:59.722Z,-5.54
2023-11-07T14:13:34.936Z,-5.82
2023-11-07T14:17:03.992Z,-5.04
2023-11-07T14:20:21.727Z,-5.41
2023-11-07T14:23:56.922Z,-6.26
2023-11-07T14:27:11.910Z,-5.47
2023-11-07T14:31:08.447Z,-5.94
2023-11-07T14:34:12.721Z,-6.55
2023-11-07T14:37:21.631Z,-5.97
2023-11-07T14:40:26.636Z,-5.42
2023-11-07T14:43:59.254Z,-6.62
2023-11-07T14:47:03.653Z,-5.35
2023-11-07T14:50:09.660Z,-5.53
2023-11-07T14:53:20.639Z,-5.77
2023-11-07T14:56:31.026Z,-5.39
2023-11-07T14:59:35.175Z,-5.61
2023-11-07T15:02:39.871Z,-5.66
2023-11-07T15:05:53.797Z,-5.24
2023-11-07T15:09:18.857Z,-5.01
2023-11-07T15:12:23.231Z,-5.09
2023-11-07T15:15:31.628Z,-5.24
2023-11-07T15:18:38.277Z,-4.86
2023-11-07T15:21:42.492Z,-5.14
2023-11-07T15:24:47.308Z,-5.25
2023-11-07T15:27:52.968Z,-5.28
2023-11-07T15:30:59.894Z,-5.14
2023-11-07T15:34:05.289Z,-5.10
2023-11-07T15:37:09.919Z,-5.26
2023-11-07T15:40:19.256Z,-5.19
2023-11-07T15:43:31.151Z,-5.03
2023-11-07T15:46:38.948Z,-5.63
2023-11-07T15:49:54.810Z,-4.91
2023-11-07T15:53:07.814Z,-4.69
2023-11-07T15:56:15.801Z,-4.58
2023-11-07T15:59:20.815Z,-4.65
2023-11-07T16:02:29.310Z,-4.79
2023-11-07T16:05:34.917Z,-4.84
2023-11-07T16:08:38.740Z,-4.85
2023-11-07T16:11:42.621Z,-4.89
2023-11-07T16:14:46.827Z,-4.98
2023-11-07T16:17:53.168Z,-4.86
2023-11-07T16:20:57.856Z,-5.01
2023-11-07T16:24:01.747Z,-5.25
2023-11-07T16:27:10.297Z,-4.77
2023-11-07T16:30:17.733Z,-5.37
2023-11-07T16:33:22.189Z,-4.76
2023-11-07T16:36:27.920Z,-4.55
2023-11-07T16:39:32.105Z,-4.38
2023-11-07T16:42:36.436Z,-4.40
2023-11-07T16:45:43.234Z,-4.44
2023-11-07T16:48:56.049Z,-5.36
2023-11-07T16:52:17.164Z,-5.04
2023-11-07T16:55:26.129Z,-5.67
2023-11-07T16:58:33.468Z,-5.50
2023-11-07T17:02:01.645Z,-5.41
2023-11-07T17:09:15.138Z,-5.58
2023-11-07T17:12:31.630Z,-5.21
2023-11-07T17:15:46.188Z,-5.20
2023-11-07T17:19:02.535Z,-4.95
2023-11-07T17:23:01.516Z,-5.41
2023-11-07T17:26:32.157Z,-5.60
2023-11-07T17:30:16.805Z,-5.57
2023-11-07T17:33:26.817Z,-5.29
2023-11-07T17:36:34.993Z,-5.88
2023-11-07T17:39:43.135Z,-5.24
2023-11-07T17:43:10.936Z,-5.38
2023-11-07T17:46:24.713Z,-5.58
2023-11-07T17:49:41.998Z,-5.37
2023-11-07T17:52:48.513Z,-5.52
2023-11-07T17:56:13.453Z,-6.08
2023-11-07T18:02:44.760Z,-4.56
2023-11-07T18:05:48.889Z,-4.61
2023-11-07T18:08:54.145Z,-4.55
2023-11-07T18:11:58.394Z,-4.34
2023-11-07T18:15:02.337Z,-4.09
2023-11-07T18:18:09.104Z,-4.41
2023-11-07T18:21:13.501Z,-4.09
2023-11-07T18:24:21.935Z,-4.96
2023-11-07T18:27:26.192Z,-4.36
2023-11-07T18:30:31.181Z,-4.28
2023-11-07T18:33:36.786Z,-4.43
2023-11-07T18:36:43.754Z,-4.55
2023-11-07T18:39:49.316Z,-5.80
2023-11-07T18:42:53.855Z,-4.79
2023-11-07T18:45:59.800Z,-4.73
2023-11-07T18:49:04.336Z,-5.02
2023-11-07T18:52:11.033Z,-5.07
2023-11-07T18:55:17.812Z,-5.53
2023-11-07T18:58:28.117Z,-4.84
2023-11-07T19:01:35.696Z,-4.89
2023-11-07T19:04:51.148Z,-4.97
2023-11-07T19:07:57.204Z,-4.95
2023-11-07T19:11:11.830Z,-5.08
2023-11-07T19:14:49.023Z,-4.85
2023-11-07T19:18:27.549Z,-5.35
2023-11-07T19:22:12.154Z,-5.35
2023-11-07T19:25:35.682Z,-5.18
2023-11-07T19:28:49.007Z,-4.79
2023-11-07T19:31:54.641Z,-5.07
2023-11-07T19:35:07.532Z,-4.78
2023-11-07T19:38:13.491Z,-4.80
2023-11-07T19:45:06.903Z,-4.94
2023-11-07T19:48:16.710Z,-4.91
2023-11-07T19:51:20.904Z,-4.87
2023-11-07T19:54:33.929Z,-4.55
2023-11-07T19:57:39.187Z,-4.98
2023-11-07T20:00:44.772Z,-4.76
2023-11-07T20:03:49.444Z,-4.83
2023-11-07T20:06:53.478Z,-4.59
2023-11-07T20:09:57.927Z,-4.55
2023-11-07T20:13:04.901Z,-4.72
2023-11-07T20:16:10.444Z,-4.63
2023-11-07T20:19:15.140Z,-5.14
2023-11-07T20:22:20.030Z,-5.05
2023-11-07T20:25:24.418Z,-4.79
2023-11-07T20:28:29.596Z,-4.91
2023-11-07T20:31:33.632Z,-4.74
2023-11-07T20:34:38.458Z,-4.86
2023-11-07T20:37:44.846Z,-4.76
2023-11-07T20:40:49.832Z,-5.05
2023-11-07T20:43:56.557Z,-4.99
2023-11-07T20:47:01.057Z,-4.97
2023-11-07T20:50:07.902Z,-4.89
2023-11-07T20:53:11.949Z,-4.72
2023-11-07T20:56:16.746Z,-4.62
2023-11-07T20:59:20.766Z,-4.66
2023-11-07T21:02:31.102Z,-4.69
2023-11-07T21:05:40.044Z,-4.74
2023-11-07T21:08:54.271Z,-4.86
2023-11-07T21:12:23.518Z,-4.80
2023-11-07T21:15:28.280Z,-4.94
2023-11-07T21:18:33.416Z,-4.74
2023-11-07T21:21:38.019Z,-4.79
2023-11-07T21:24:42.690Z,-4.81
2023-11-07T21:27:46.984Z,-5.25
2023-11-07T21:30:53.488Z,-4.73
2023-11-07T21:34:03.501Z,-4.53
2023-11-07T21:37:17.930Z,-4.95
2023-11-07T21:40:43.680Z,-4.42
2023-11-07T21:43:51.450Z,-4.40
2023-11-07T21:47:11.951Z,-4.43
2023-11-07T21:50:26.760Z,-4.54
2023-11-07T21:53:33.918Z,-4.51
2023-11-07T21:56:44.384Z,-4.26
2023-11-07T21:59:48.840Z,-4.32
2023-11-07T22:02:59.999Z,-4.31
2023-11-07T22:06:13.833Z,-4.61
2023-11-07T22:09:47.513Z,-5.12
2023-11-07T22:12:54.601Z,-4.41
2023-11-07T22:15:58.559Z,-4.42
2023-11-07T22:19:03.821Z,-4.23
2023-11-07T22:22:17.349Z,-4.16
2023-11-07T22:25:22.150Z,-3.90
2023-11-07T22:28:26.730Z,-3.87
2023-11-07T22:31:30.794Z,-3.73
2023-11-07T22:34:35.965Z,-4.00
2023-11-07T22:37:40.247Z,-3.72
2023-11-07T22:40:44.287Z,-3.47
2023-11-07T22:43:48.496Z,-3.42
2023-11-07T22:46:55.230Z,-3.39
2023-11-07T22:50:01.329Z,-3.71
2023-11-07T22:53:07.513Z,-3.73
2023-11-07T22:56:11.794Z,-2.96
2023-11-07T22:59:16.093Z,-2.76
2023-11-07T23:02:20.416Z,-2.84
2023-11-07T23:05:24.425Z,-2.72
2023-11-07T23:09:16.208Z,-3.05
2023-11-07T23:13:37.177Z,-4.24
2023-11-07T23:18:06.180Z,-3.74
2023-11-07T23:30:12.624Z,-3.41
2023-11-07T23:34:04.145Z,-3.63
2023-11-07T23:38:02.020Z,-3.25
2023-11-07T23:45:48.808Z,-4.26
2023-11-07T23:49:44.031Z,-4.37
2023-11-07T23:53:13.496Z,-2.46
2023-11-07T23:56:26.157Z,-2.65
2023-11-07T23:59:30.758Z,-3.82
